sensor_id;sensor_type;location;lat;lon;timestamp;P1;durP1;ratioP1;P2;durP2;ratioP2
20073;SDS011;10197;54.282;10.078;2023-05-29T00:00:23;17.30;;;3.70;;
20073;SDS011;10197;54.282;10.078;2023-05-29T00:02:50;12.73;;;3.60;;
20073;SDS011;10197;54.282;10.078;2023-05-29T00:05:17;13.55;;;3.40;;
20073;SDS011;10197;54.282;10.078;2023-05-29T00:07:44;9.88;;;2.90;;
20073;SDS011;10197;54.282;10.078;2023-05-29T00:10:11;13.02;;;3.63;;
20073;SDS011;10197;54.282;10.078;2023-05-29T00:12:39;13.15;;;3.53;;
20073;SDS011;10197;54.282;10.078;2023-05-29T00:15:07;10.60;;;3.35;;
20073;SDS011;10197;54.282;10.078;2023-05-29T00:17:35;13.07;;;3.45;;
20073;SDS011;10197;54.282;10.078;2023-05-29T00:20:03;12.63;;;3.28;;
20073;SDS011;10197;54.282;10.078;2023-05-29T00:22:32;10.05;;;3.25;;
20073;SDS011;10197;54.282;10.078;2023-05-29T00:24:59;10.02;;;3.08;;
20073;SDS011;10197;54.282;10.078;2023-05-29T00:27:26;6.82;;;2.90;;
20073;SDS011;10197;54.282;10.078;2023-05-29T00:29:55;12.02;;;3.80;;
20073;SDS011;10197;54.282;10.078;2023-05-29T00:32:21;12.02;;;3.38;;
20073;SDS011;10197;54.282;10.078;2023-05-29T00:34:48;11.02;;;3.15;;
20073;SDS011;10197;54.282;10.078;2023-05-29T00:37:15;10.73;;;3.40;;
20073;SDS011;10197;54.282;10.078;2023-05-29T00:39:42;12.88;;;3.75;;
20073;SDS011;10197;54.282;10.078;2023-05-29T00:42:10;12.68;;;3.33;;
20073;SDS011;10197;54.282;10.078;2023-05-29T00:44:37;10.60;;;3.33;;
20073;SDS011;10197;54.282;10.078;2023-05-29T00:47:05;9.68;;;2.90;;
20073;SDS011;10197;54.282;10.078;2023-05-29T00:49:32;13.20;;;3.33;;
20073;SDS011;10197;54.282;10.078;2023-05-29T00:52:00;14.13;;;3.63;;
20073;SDS011;10197;54.282;10.078;2023-05-29T00:54:28;8.60;;;3.05;;
20073;SDS011;10197;54.282;10.078;2023-05-29T00:56:56;10.13;;;3.25;;
20073;SDS011;10197;54.282;10.078;2023-05-29T00:59:24;12.85;;;3.85;;
20073;SDS011;10197;54.282;10.078;2023-05-29T01:01:52;16.63;;;3.45;;
20073;SDS011;10197;54.282;10.078;2023-05-29T01:04:20;13.68;;;3.75;;
20073;SDS011;10197;54.282;10.078;2023-05-29T01:06:49;12.52;;;3.63;;
20073;SDS011;10197;54.282;10.078;2023-05-29T01:09:17;10.18;;;3.13;;
20073;SDS011;10197;54.282;10.078;2023-05-29T01:11:45;14.50;;;3.83;;
20073;SDS011;10197;54.282;10.078;2023-05-29T01:14:21;14.40;;;4.35;;
20073;SDS011;10197;54.282;10.078;2023-05-29T01:16:54;12.10;;;3.80;;
20073;SDS011;10197;54.282;10.078;2023-05-29T01:19:28;10.20;;;3.00;;
20073;SDS011;10197;54.282;10.078;2023-05-29T01:22:21;9.82;;;3.05;;
20073;SDS011;10197;54.282;10.078;2023-05-29T01:24:54;9.02;;;3.08;;
20073;SDS011;10197;54.282;10.078;2023-05-29T01:27:28;10.90;;;3.17;;
20073;SDS011;10197;54.282;10.078;2023-05-29T01:29:57;9.18;;;3.30;;
20073;SDS011;10197;54.282;10.078;2023-05-29T01:32:28;14.45;;;3.65;;
20073;SDS011;10197;54.282;10.078;2023-05-29T01:34:55;12.82;;;3.50;;
20073;SDS011;10197;54.282;10.078;2023-05-29T01:37:22;15.23;;;3.83;;
20073;SDS011;10197;54.282;10.078;2023-05-29T01:39:49;10.73;;;3.58;;
20073;SDS011;10197;54.282;10.078;2023-05-29T01:42:17;14.30;;;4.03;;
20073;SDS011;10197;54.282;10.078;2023-05-29T01:44:45;10.07;;;3.20;;
20073;SDS011;10197;54.282;10.078;2023-05-29T01:47:15;10.07;;;3.25;;
20073;SDS011;10197;54.282;10.078;2023-05-29T01:49:43;12.40;;;3.40;;
20073;SDS011;10197;54.282;10.078;2023-05-29T01:52:10;14.45;;;3.53;;
20073;SDS011;10197;54.282;10.078;2023-05-29T01:54:37;11.32;;;3.90;;
20073;SDS011;10197;54.282;10.078;2023-05-29T01:57:04;13.85;;;3.40;;
20073;SDS011;10197;54.282;10.078;2023-05-29T01:59:33;13.43;;;3.42;;
20073;SDS011;10197;54.282;10.078;2023-05-29T02:02:06;10.65;;;3.53;;
20073;SDS011;10197;54.282;10.078;2023-05-29T02:04:33;12.02;;;3.17;;
20073;SDS011;10197;54.282;10.078;2023-05-29T02:07:00;17.10;;;3.03;;
20073;SDS011;10197;54.282;10.078;2023-05-29T02:09:27;9.65;;;3.13;;
20073;SDS011;10197;54.282;10.078;2023-05-29T02:11:54;10.40;;;3.67;;
20073;SDS011;10197;54.282;10.078;2023-05-29T02:14:21;12.93;;;3.00;;
20073;SDS011;10197;54.282;10.078;2023-05-29T02:16:51;11.77;;;3.40;;
20073;SDS011;10197;54.282;10.078;2023-05-29T02:19:20;8.35;;;2.85;;
20073;SDS011;10197;54.282;10.078;2023-05-29T02:21:50;10.50;;;3.22;;
20073;SDS011;10197;54.282;10.078;2023-05-29T02:24:17;10.27;;;3.40;;
20073;SDS011;10197;54.282;10.078;2023-05-29T02:26:45;9.77;;;3.30;;
20073;SDS011;10197;54.282;10.078;2023-05-29T02:29:13;13.27;;;3.83;;
20073;SDS011;10197;54.282;10.078;2023-05-29T02:31:41;14.50;;;3.70;;
20073;SDS011;10197;54.282;10.078;2023-05-29T02:34:07;17.00;;;3.83;;
20073;SDS011;10197;54.282;10.078;2023-05-29T02:36:36;11.63;;;3.60;;
20073;SDS011;10197;54.282;10.078;2023-05-29T02:39:03;13.55;;;3.88;;
20073;SDS011;10197;54.282;10.078;2023-05-29T02:41:30;11.38;;;2.60;;
20073;SDS011;10197;54.282;10.078;2023-05-29T02:43:57;13.25;;;3.60;;
20073;SDS011;10197;54.282;10.078;2023-05-29T02:46:24;10.57;;;3.55;;
20073;SDS011;10197;54.282;10.078;2023-05-29T02:48:51;12.63;;;3.97;;
20073;SDS011;10197;54.282;10.078;2023-05-29T02:51:18;10.70;;;3.22;;
20073;SDS011;10197;54.282;10.078;2023-05-29T02:53:46;13.57;;;3.58;;
20073;SDS011;10197;54.282;10.078;2023-05-29T02:56:14;9.57;;;3.05;;
20073;SDS011;10197;54.282;10.078;2023-05-29T02:58:42;9.68;;;3.17;;
20073;SDS011;10197;54.282;10.078;2023-05-29T03:01:08;8.15;;;3.05;;
20073;SDS011;10197;54.282;10.078;2023-05-29T03:03:36;15.02;;;3.60;;
20073;SDS011;10197;54.282;10.078;2023-05-29T03:06:03;13.23;;;3.78;;
20073;SDS011;10197;54.282;10.078;2023-05-29T03:08:32;12.13;;;3.60;;
20073;SDS011;10197;54.282;10.078;2023-05-29T03:11:00;14.60;;;3.60;;
20073;SDS011;10197;54.282;10.078;2023-05-29T03:13:28;13.50;;;3.17;;
20073;SDS011;10197;54.282;10.078;2023-05-29T03:16:03;13.40;;;2.97;;
20073;SDS011;10197;54.282;10.078;2023-05-29T03:18:30;9.15;;;2.92;;
20073;SDS011;10197;54.282;10.078;2023-05-29T03:21:00;13.25;;;3.63;;
20073;SDS011;10197;54.282;10.078;2023-05-29T03:23:30;12.32;;;3.42;;
20073;SDS011;10197;54.282;10.078;2023-05-29T03:25:58;11.07;;;3.45;;
20073;SDS011;10197;54.282;10.078;2023-05-29T03:28:29;11.55;;;3.00;;
20073;SDS011;10197;54.282;10.078;2023-05-29T03:30:58;18.65;;;3.92;;
20073;SDS011;10197;54.282;10.078;2023-05-29T03:33:25;16.38;;;3.80;;
20073;SDS011;10197;54.282;10.078;2023-05-29T03:36:15;14.05;;;3.55;;
20073;SDS011;10197;54.282;10.078;2023-05-29T03:38:43;12.77;;;3.45;;
20073;SDS011;10197;54.282;10.078;2023-05-29T03:41:11;12.27;;;3.10;;
20073;SDS011;10197;54.282;10.078;2023-05-29T03:43:38;13.90;;;3.53;;
20073;SDS011;10197;54.282;10.078;2023-05-29T03:46:06;12.05;;;3.60;;
20073;SDS011;10197;54.282;10.078;2023-05-29T03:48:34;21.02;;;4.95;;
20073;SDS011;10197;54.282;10.078;2023-05-29T03:51:01;17.25;;;4.95;;
20073;SDS011;10197;54.282;10.078;2023-05-29T03:53:33;15.15;;;3.78;;
20073;SDS011;10197;54.282;10.078;2023-05-29T03:56:00;14.82;;;4.10;;
20073;SDS011;10197;54.282;10.078;2023-05-29T03:58:29;17.15;;;4.25;;
20073;SDS011;10197;54.282;10.078;2023-05-29T04:00:57;15.95;;;4.10;;
20073;SDS011;10197;54.282;10.078;2023-05-29T04:03:26;21.13;;;4.25;;
20073;SDS011;10197;54.282;10.078;2023-05-29T04:05:54;18.55;;;5.28;;
20073;SDS011;10197;54.282;10.078;2023-05-29T04:08:22;12.95;;;4.40;;
20073;SDS011;10197;54.282;10.078;2023-05-29T04:10:49;14.27;;;4.10;;
20073;SDS011;10197;54.282;10.078;2023-05-29T04:13:20;15.00;;;4.00;;
20073;SDS011;10197;54.282;10.078;2023-05-29T04:15:48;20.48;;;5.43;;
20073;SDS011;10197;54.282;10.078;2023-05-29T04:18:17;13.10;;;3.97;;
20073;SDS011;10197;54.282;10.078;2023-05-29T04:20:44;16.73;;;3.85;;
20073;SDS011;10197;54.282;10.078;2023-05-29T04:23:12;16.23;;;4.65;;
20073;SDS011;10197;54.282;10.078;2023-05-29T04:25:39;15.43;;;4.28;;
20073;SDS011;10197;54.282;10.078;2023-05-29T04:28:07;16.73;;;4.13;;
20073;SDS011;10197;54.282;10.078;2023-05-29T04:30:36;15.38;;;4.22;;
20073;SDS011;10197;54.282;10.078;2023-05-29T04:33:05;20.10;;;4.60;;
20073;SDS011;10197;54.282;10.078;2023-05-29T04:35:33;17.90;;;4.30;;
20073;SDS011;10197;54.282;10.078;2023-05-29T04:38:05;17.48;;;4.13;;
20073;SDS011;10197;54.282;10.078;2023-05-29T04:40:32;17.80;;;4.40;;
20073;SDS011;10197;54.282;10.078;2023-05-29T04:43:02;16.30;;;5.13;;
20073;SDS011;10197;54.282;10.078;2023-05-29T04:45:43;15.13;;;4.15;;
20073;SDS011;10197;54.282;10.078;2023-05-29T04:48:11;19.77;;;5.38;;
20073;SDS011;10197;54.282;10.078;2023-05-29T04:50:39;18.30;;;4.50;;
20073;SDS011;10197;54.282;10.078;2023-05-29T04:53:06;14.82;;;4.20;;
20073;SDS011;10197;54.282;10.078;2023-05-29T04:55:33;21.10;;;4.90;;
20073;SDS011;10197;54.282;10.078;2023-05-29T04:58:00;23.58;;;5.00;;
20073;SDS011;10197;54.282;10.078;2023-05-29T05:00:27;18.85;;;4.30;;
20073;SDS011;10197;54.282;10.078;2023-05-29T05:02:54;14.15;;;4.72;;
20073;SDS011;10197;54.282;10.078;2023-05-29T05:05:27;19.15;;;5.20;;
20073;SDS011;10197;54.282;10.078;2023-05-29T05:07:57;20.17;;;4.78;;
20073;SDS011;10197;54.282;10.078;2023-05-29T05:10:24;15.90;;;4.30;;
20073;SDS011;10197;54.282;10.078;2023-05-29T05:12:51;21.70;;;5.20;;
20073;SDS011;10197;54.282;10.078;2023-05-29T05:15:21;19.55;;;4.35;;
20073;SDS011;10197;54.282;10.078;2023-05-29T05:17:48;14.88;;;4.30;;
20073;SDS011;10197;54.282;10.078;2023-05-29T05:20:16;19.08;;;4.10;;
20073;SDS011;10197;54.282;10.078;2023-05-29T05:22:49;17.88;;;4.35;;
20073;SDS011;10197;54.282;10.078;2023-05-29T05:25:17;16.30;;;5.10;;
20073;SDS011;10197;54.282;10.078;2023-05-29T05:27:45;17.67;;;4.13;;
20073;SDS011;10197;54.282;10.078;2023-05-29T05:30:12;21.08;;;4.85;;
20073;SDS011;10197;54.282;10.078;2023-05-29T05:32:41;13.43;;;4.07;;
20073;SDS011;10197;54.282;10.078;2023-05-29T05:35:09;18.23;;;5.00;;
20073;SDS011;10197;54.282;10.078;2023-05-29T05:37:37;23.50;;;5.72;;
20073;SDS011;10197;54.282;10.078;2023-05-29T05:40:07;16.17;;;4.90;;
20073;SDS011;10197;54.282;10.078;2023-05-29T05:42:41;15.60;;;4.53;;
20073;SDS011;10197;54.282;10.078;2023-05-29T05:45:11;20.48;;;5.40;;
20073;SDS011;10197;54.282;10.078;2023-05-29T05:47:37;18.42;;;5.15;;
20073;SDS011;10197;54.282;10.078;2023-05-29T05:50:07;21.92;;;5.28;;
20073;SDS011;10197;54.282;10.078;2023-05-29T05:52:34;18.48;;;4.50;;
20073;SDS011;10197;54.282;10.078;2023-05-29T05:55:01;18.40;;;4.80;;
20073;SDS011;10197;54.282;10.078;2023-05-29T05:57:30;15.05;;;4.40;;
20073;SDS011;10197;54.282;10.078;2023-05-29T05:59:58;27.67;;;6.50;;
20073;SDS011;10197;54.282;10.078;2023-05-29T06:02:29;23.60;;;5.88;;
20073;SDS011;10197;54.282;10.078;2023-05-29T06:04:56;18.50;;;4.75;;
20073;SDS011;10197;54.282;10.078;2023-05-29T06:07:23;19.00;;;4.88;;
20073;SDS011;10197;54.282;10.078;2023-05-29T06:09:50;14.60;;;4.78;;
20073;SDS011;10197;54.282;10.078;2023-05-29T06:12:17;17.85;;;5.05;;
20073;SDS011;10197;54.282;10.078;2023-05-29T06:14:55;19.17;;;5.22;;
20073;SDS011;10197;54.282;10.078;2023-05-29T06:17:22;18.27;;;4.90;;
20073;SDS011;10197;54.282;10.078;2023-05-29T06:19:49;16.38;;;5.07;;
20073;SDS011;10197;54.282;10.078;2023-05-29T06:22:17;19.65;;;6.00;;
20073;SDS011;10197;54.282;10.078;2023-05-29T06:24:45;20.42;;;5.28;;
20073;SDS011;10197;54.282;10.078;2023-05-29T06:27:13;15.07;;;4.18;;
20073;SDS011;10197;54.282;10.078;2023-05-29T06:29:40;15.13;;;4.50;;
20073;SDS011;10197;54.282;10.078;2023-05-29T06:32:08;20.00;;;5.68;;
20073;SDS011;10197;54.282;10.078;2023-05-29T06:34:35;18.33;;;5.55;;
20073;SDS011;10197;54.282;10.078;2023-05-29T06:37:02;19.00;;;4.43;;
20073;SDS011;10197;54.282;10.078;2023-05-29T06:39:29;22.95;;;5.55;;
20073;SDS011;10197;54.282;10.078;2023-05-29T06:41:57;16.48;;;5.25;;
20073;SDS011;10197;54.282;10.078;2023-05-29T06:44:24;17.17;;;4.97;;
20073;SDS011;10197;54.282;10.078;2023-05-29T06:46:53;19.20;;;4.88;;
20073;SDS011;10197;54.282;10.078;2023-05-29T06:49:21;19.70;;;5.30;;
20073;SDS011;10197;54.282;10.078;2023-05-29T06:51:48;13.90;;;4.75;;
20073;SDS011;10197;54.282;10.078;2023-05-29T06:54:35;17.50;;;4.78;;
20073;SDS011;10197;54.282;10.078;2023-05-29T06:57:03;15.27;;;4.32;;
20073;SDS011;10197;54.282;10.078;2023-05-29T06:59:30;20.55;;;5.43;;
20073;SDS011;10197;54.282;10.078;2023-05-29T07:01:58;19.33;;;4.75;;
20073;SDS011;10197;54.282;10.078;2023-05-29T07:04:29;16.70;;;4.78;;
20073;SDS011;10197;54.282;10.078;2023-05-29T07:06:57;21.35;;;5.25;;
20073;SDS011;10197;54.282;10.078;2023-05-29T07:09:24;22.92;;;5.80;;
20073;SDS011;10197;54.282;10.078;2023-05-29T07:11:56;22.55;;;5.30;;
20073;SDS011;10197;54.282;10.078;2023-05-29T07:14:26;18.25;;;4.80;;
20073;SDS011;10197;54.282;10.078;2023-05-29T07:16:53;22.65;;;5.45;;
20073;SDS011;10197;54.282;10.078;2023-05-29T07:19:20;20.95;;;5.65;;
20073;SDS011;10197;54.282;10.078;2023-05-29T07:21:48;19.25;;;5.63;;
20073;SDS011;10197;54.282;10.078;2023-05-29T07:24:18;18.25;;;5.28;;
20073;SDS011;10197;54.282;10.078;2023-05-29T07:26:45;17.58;;;4.20;;
20073;SDS011;10197;54.282;10.078;2023-05-29T07:29:12;23.20;;;5.25;;
20073;SDS011;10197;54.282;10.078;2023-05-29T07:31:42;21.60;;;5.43;;
20073;SDS011;10197;54.282;10.078;2023-05-29T07:34:09;19.75;;;5.38;;
20073;SDS011;10197;54.282;10.078;2023-05-29T07:36:37;17.90;;;4.35;;
20073;SDS011;10197;54.282;10.078;2023-05-29T07:39:26;11.98;;;4.15;;
20073;SDS011;10197;54.282;10.078;2023-05-29T07:41:54;16.65;;;4.82;;
20073;SDS011;10197;54.282;10.078;2023-05-29T07:44:21;18.88;;;5.63;;
20073;SDS011;10197;54.282;10.078;2023-05-29T07:46:49;14.13;;;4.18;;
20073;SDS011;10197;54.282;10.078;2023-05-29T07:49:30;19.83;;;5.40;;
20073;SDS011;10197;54.282;10.078;2023-05-29T07:51:59;13.88;;;4.00;;
20073;SDS011;10197;54.282;10.078;2023-05-29T07:54:27;18.25;;;4.40;;
20073;SDS011;10197;54.282;10.078;2023-05-29T07:56:54;13.80;;;4.57;;
20073;SDS011;10197;54.282;10.078;2023-05-29T07:59:21;13.68;;;4.35;;
20073;SDS011;10197;54.282;10.078;2023-05-29T08:01:49;19.23;;;5.35;;
20073;SDS011;10197;54.282;10.078;2023-05-29T08:04:36;14.25;;;4.50;;
20073;SDS011;10197;54.282;10.078;2023-05-29T08:07:04;14.05;;;4.10;;
20073;SDS011;10197;54.282;10.078;2023-05-29T08:09:31;15.32;;;4.25;;
20073;SDS011;10197;54.282;10.078;2023-05-29T08:11:58;15.90;;;4.60;;
20073;SDS011;10197;54.282;10.078;2023-05-29T08:14:26;17.15;;;4.93;;
20073;SDS011;10197;54.282;10.078;2023-05-29T08:16:53;14.13;;;4.72;;
20073;SDS011;10197;54.282;10.078;2023-05-29T08:19:21;13.40;;;4.70;;
20073;SDS011;10197;54.282;10.078;2023-05-29T08:21:48;21.35;;;5.90;;
20073;SDS011;10197;54.282;10.078;2023-05-29T08:24:16;14.45;;;4.32;;
20073;SDS011;10197;54.282;10.078;2023-05-29T08:26:43;15.20;;;4.55;;
20073;SDS011;10197;54.282;10.078;2023-05-29T08:29:10;11.57;;;3.88;;
20073;SDS011;10197;54.282;10.078;2023-05-29T08:31:37;13.90;;;4.30;;
20073;SDS011;10197;54.282;10.078;2023-05-29T08:34:04;14.73;;;4.28;;
20073;SDS011;10197;54.282;10.078;2023-05-29T08:36:32;13.07;;;4.28;;
20073;SDS011;10197;54.282;10.078;2023-05-29T08:38:59;13.25;;;4.30;;
20073;SDS011;10197;54.282;10.078;2023-05-29T08:41:28;16.98;;;4.57;;
20073;SDS011;10197;54.282;10.078;2023-05-29T08:43:58;11.35;;;4.43;;
20073;SDS011;10197;54.282;10.078;2023-05-29T08:46:26;13.80;;;4.72;;
20073;SDS011;10197;54.282;10.078;2023-05-29T08:48:54;14.73;;;4.32;;
20073;SDS011;10197;54.282;10.078;2023-05-29T08:51:26;12.57;;;4.35;;
20073;SDS011;10197;54.282;10.078;2023-05-29T08:53:59;11.02;;;3.38;;
20073;SDS011;10197;54.282;10.078;2023-05-29T08:56:28;11.45;;;4.05;;
20073;SDS011;10197;54.282;10.078;2023-05-29T08:58:56;10.02;;;3.53;;
20073;SDS011;10197;54.282;10.078;2023-05-29T09:01:24;10.25;;;3.30;;
20073;SDS011;10197;54.282;10.078;2023-05-29T09:03:51;10.27;;;3.65;;
20073;SDS011;10197;54.282;10.078;2023-05-29T09:06:18;9.93;;;3.85;;
20073;SDS011;10197;54.282;10.078;2023-05-29T09:08:46;10.30;;;3.67;;
20073;SDS011;10197;54.282;10.078;2023-05-29T09:11:13;15.15;;;4.13;;
20073;SDS011;10197;54.282;10.078;2023-05-29T09:13:41;9.68;;;2.97;;
20073;SDS011;10197;54.282;10.078;2023-05-29T09:16:09;13.13;;;3.50;;
20073;SDS011;10197;54.282;10.078;2023-05-29T09:18:36;10.20;;;3.35;;
20073;SDS011;10197;54.282;10.078;2023-05-29T09:21:06;7.82;;;3.13;;
20073;SDS011;10197;54.282;10.078;2023-05-29T09:23:34;7.63;;;2.97;;
20073;SDS011;10197;54.282;10.078;2023-05-29T09:26:02;8.88;;;3.05;;
20073;SDS011;10197;54.282;10.078;2023-05-29T09:28:29;10.23;;;3.58;;
20073;SDS011;10197;54.282;10.078;2023-05-29T09:30:59;10.07;;;3.38;;
20073;SDS011;10197;54.282;10.078;2023-05-29T09:33:26;10.40;;;3.47;;
20073;SDS011;10197;54.282;10.078;2023-05-29T09:35:53;10.13;;;3.10;;
20073;SDS011;10197;54.282;10.078;2023-05-29T09:38:20;7.75;;;3.05;;
20073;SDS011;10197;54.282;10.078;2023-05-29T09:40:47;8.20;;;2.75;;
20073;SDS011;10197;54.282;10.078;2023-05-29T09:43:14;12.90;;;3.53;;
20073;SDS011;10197;54.282;10.078;2023-05-29T09:45:43;7.90;;;3.50;;
20073;SDS011;10197;54.282;10.078;2023-05-29T09:48:13;13.23;;;3.85;;
20073;SDS011;10197;54.282;10.078;2023-05-29T09:50:41;9.73;;;3.22;;
20073;SDS011;10197;54.282;10.078;2023-05-29T09:53:16;9.13;;;3.13;;
20073;SDS011;10197;54.282;10.078;2023-05-29T09:55:47;10.95;;;3.67;;
20073;SDS011;10197;54.282;10.078;2023-05-29T09:58:16;8.05;;;3.20;;
20073;SDS011;10197;54.282;10.078;2023-05-29T10:00:44;9.05;;;3.20;;
20073;SDS011;10197;54.282;10.078;2023-05-29T10:03:14;10.82;;;3.60;;
20073;SDS011;10197;54.282;10.078;2023-05-29T10:05:42;8.57;;;3.00;;
20073;SDS011;10197;54.282;10.078;2023-05-29T10:08:11;7.05;;;3.20;;
20073;SDS011;10197;54.282;10.078;2023-05-29T10:10:39;10.88;;;3.45;;
20073;SDS011;10197;54.282;10.078;2023-05-29T10:13:07;9.90;;;3.38;;
20073;SDS011;10197;54.282;10.078;2023-05-29T10:15:36;11.60;;;3.40;;
20073;SDS011;10197;54.282;10.078;2023-05-29T10:18:03;10.50;;;3.40;;
20073;SDS011;10197;54.282;10.078;2023-05-29T10:20:34;9.30;;;3.03;;
20073;SDS011;10197;54.282;10.078;2023-05-29T10:23:02;8.95;;;3.20;;
20073;SDS011;10197;54.282;10.078;2023-05-29T10:25:30;10.07;;;3.03;;
20073;SDS011;10197;54.282;10.078;2023-05-29T10:27:59;9.52;;;2.92;;
20073;SDS011;10197;54.282;10.078;2023-05-29T10:30:28;8.02;;;3.15;;
20073;SDS011;10197;54.282;10.078;2023-05-29T10:36:01;10.05;;;3.28;;
20073;SDS011;10197;54.282;10.078;2023-05-29T10:38:34;8.70;;;2.70;;
20073;SDS011;10197;54.282;10.078;2023-05-29T10:43:55;9.27;;;3.10;;
20073;SDS011;10197;54.282;10.078;2023-05-29T10:46:33;6.10;;;2.85;;
20073;SDS011;10197;54.282;10.078;2023-05-29T10:49:30;9.77;;;3.15;;
20073;SDS011;10197;54.282;10.078;2023-05-29T10:52:02;7.47;;;3.00;;
20073;SDS011;10197;54.282;10.078;2023-05-29T10:54:39;9.10;;;2.50;;
20073;SDS011;10197;54.282;10.078;2023-05-29T10:57:07;4.70;;;2.67;;
20073;SDS011;10197;54.282;10.078;2023-05-29T10:59:35;7.82;;;3.17;;
20073;SDS011;10197;54.282;10.078;2023-05-29T11:02:04;7.80;;;2.90;;
20073;SDS011;10197;54.282;10.078;2023-05-29T11:04:32;8.10;;;3.28;;
20073;SDS011;10197;54.282;10.078;2023-05-29T11:06:59;12.25;;;3.35;;
20073;SDS011;10197;54.282;10.078;2023-05-29T11:09:31;7.10;;;3.28;;
20073;SDS011;10197;54.282;10.078;2023-05-29T11:12:12;8.73;;;3.13;;
20073;SDS011;10197;54.282;10.078;2023-05-29T11:14:54;5.82;;;2.28;;
20073;SDS011;10197;54.282;10.078;2023-05-29T11:17:29;8.15;;;2.80;;
20073;SDS011;10197;54.282;10.078;2023-05-29T11:20:02;10.00;;;3.22;;
20073;SDS011;10197;54.282;10.078;2023-05-29T11:22:34;8.32;;;3.22;;
20073;SDS011;10197;54.282;10.078;2023-05-29T11:25:20;9.32;;;2.92;;
20073;SDS011;10197;54.282;10.078;2023-05-29T11:27:48;5.85;;;2.60;;
20073;SDS011;10197;54.282;10.078;2023-05-29T11:30:15;5.43;;;2.33;;
20073;SDS011;10197;54.282;10.078;2023-05-29T11:32:42;6.78;;;3.00;;
20073;SDS011;10197;54.282;10.078;2023-05-29T11:35:11;9.27;;;3.10;;
20073;SDS011;10197;54.282;10.078;2023-05-29T11:37:39;7.75;;;3.00;;
20073;SDS011;10197;54.282;10.078;2023-05-29T11:40:08;7.13;;;2.97;;
20073;SDS011;10197;54.282;10.078;2023-05-29T11:42:37;9.85;;;3.10;;
20073;SDS011;10197;54.282;10.078;2023-05-29T11:45:10;8.63;;;3.20;;
20073;SDS011;10197;54.282;10.078;2023-05-29T11:47:52;7.10;;;3.10;;
20073;SDS011;10197;54.282;10.078;2023-05-29T11:50:20;7.88;;;2.90;;
20073;SDS011;10197;54.282;10.078;2023-05-29T11:52:47;6.07;;;2.78;;
20073;SDS011;10197;54.282;10.078;2023-05-29T11:55:14;10.88;;;3.00;;
20073;SDS011;10197;54.282;10.078;2023-05-29T11:57:42;8.77;;;2.60;;
20073;SDS011;10197;54.282;10.078;2023-05-29T12:00:12;7.30;;;2.95;;
20073;SDS011;10197;54.282;10.078;2023-05-29T12:02:40;7.32;;;2.70;;
20073;SDS011;10197;54.282;10.078;2023-05-29T12:05:08;7.47;;;2.90;;
20073;SDS011;10197;54.282;10.078;2023-05-29T12:07:35;6.57;;;2.78;;
20073;SDS011;10197;54.282;10.078;2023-05-29T12:10:09;6.53;;;2.40;;
20073;SDS011;10197;54.282;10.078;2023-05-29T12:12:36;5.80;;;2.60;;
20073;SDS011;10197;54.282;10.078;2023-05-29T12:15:06;6.43;;;3.03;;
20073;SDS011;10197;54.282;10.078;2023-05-29T12:17:34;7.45;;;2.65;;
20073;SDS011;10197;54.282;10.078;2023-05-29T12:20:01;7.38;;;2.70;;
20073;SDS011;10197;54.282;10.078;2023-05-29T12:22:34;8.02;;;2.80;;
20073;SDS011;10197;54.282;10.078;2023-05-29T12:25:05;6.50;;;2.75;;
20073;SDS011;10197;54.282;10.078;2023-05-29T12:27:33;5.90;;;2.53;;
20073;SDS011;10197;54.282;10.078;2023-05-29T12:30:08;6.90;;;2.88;;
20073;SDS011;10197;54.282;10.078;2023-05-29T12:32:36;5.68;;;2.72;;
20073;SDS011;10197;54.282;10.078;2023-05-29T12:35:11;6.85;;;2.70;;
20073;SDS011;10197;54.282;10.078;2023-05-29T12:37:43;4.82;;;2.63;;
20073;SDS011;10197;54.282;10.078;2023-05-29T12:40:12;6.57;;;2.55;;
20073;SDS011;10197;54.282;10.078;2023-05-29T12:42:40;7.40;;;2.80;;
20073;SDS011;10197;54.282;10.078;2023-05-29T12:45:09;7.13;;;2.80;;
20073;SDS011;10197;54.282;10.078;2023-05-29T12:47:36;5.72;;;2.67;;
20073;SDS011;10197;54.282;10.078;2023-05-29T12:50:19;8.07;;;2.97;;
20073;SDS011;10197;54.282;10.078;2023-05-29T12:52:52;6.45;;;2.60;;
20073;SDS011;10197;54.282;10.078;2023-05-29T12:55:23;6.75;;;2.60;;
20073;SDS011;10197;54.282;10.078;2023-05-29T12:57:50;6.05;;;2.65;;
20073;SDS011;10197;54.282;10.078;2023-05-29T13:00:19;7.70;;;2.70;;
20073;SDS011;10197;54.282;10.078;2023-05-29T13:02:46;6.15;;;2.45;;
20073;SDS011;10197;54.282;10.078;2023-05-29T13:05:14;7.35;;;2.90;;
20073;SDS011;10197;54.282;10.078;2023-05-29T13:07:44;6.05;;;2.75;;
20073;SDS011;10197;54.282;10.078;2023-05-29T13:10:11;5.22;;;2.47;;
20073;SDS011;10197;54.282;10.078;2023-05-29T13:12:38;6.95;;;3.00;;
20073;SDS011;10197;54.282;10.078;2023-05-29T13:15:05;5.90;;;2.60;;
20073;SDS011;10197;54.282;10.078;2023-05-29T13:17:34;7.32;;;2.45;;
20073;SDS011;10197;54.282;10.078;2023-05-29T13:20:01;9.50;;;3.10;;
20073;SDS011;10197;54.282;10.078;2023-05-29T13:22:31;6.85;;;3.00;;
20073;SDS011;10197;54.282;10.078;2023-05-29T13:24:58;10.13;;;3.05;;
20073;SDS011;10197;54.282;10.078;2023-05-29T13:27:30;4.80;;;2.22;;
20073;SDS011;10197;54.282;10.078;2023-05-29T13:29:57;5.97;;;2.42;;
20073;SDS011;10197;54.282;10.078;2023-05-29T13:32:24;6.05;;;3.08;;
20073;SDS011;10197;54.282;10.078;2023-05-29T13:34:52;5.10;;;2.70;;
20073;SDS011;10197;54.282;10.078;2023-05-29T13:37:18;5.63;;;2.38;;
20073;SDS011;10197;54.282;10.078;2023-05-29T13:39:45;8.20;;;2.75;;
20073;SDS011;10197;54.282;10.078;2023-05-29T13:42:12;8.75;;;3.08;;
20073;SDS011;10197;54.282;10.078;2023-05-29T13:44:39;7.50;;;3.45;;
20073;SDS011;10197;54.282;10.078;2023-05-29T13:47:06;7.13;;;2.65;;
20073;SDS011;10197;54.282;10.078;2023-05-29T13:49:33;7.60;;;2.70;;
20073;SDS011;10197;54.282;10.078;2023-05-29T13:52:01;6.30;;;2.60;;
20073;SDS011;10197;54.282;10.078;2023-05-29T13:54:28;4.75;;;2.50;;
20073;SDS011;10197;54.282;10.078;2023-05-29T13:56:56;6.97;;;2.58;;
20073;SDS011;10197;54.282;10.078;2023-05-29T13:59:26;5.68;;;2.47;;
20073;SDS011;10197;54.282;10.078;2023-05-29T14:01:53;5.97;;;2.88;;
20073;SDS011;10197;54.282;10.078;2023-05-29T14:04:19;6.03;;;2.70;;
20073;SDS011;10197;54.282;10.078;2023-05-29T14:06:46;6.55;;;2.50;;
20073;SDS011;10197;54.282;10.078;2023-05-29T14:09:14;6.57;;;2.47;;
20073;SDS011;10197;54.282;10.078;2023-05-29T14:11:42;6.95;;;2.50;;
20073;SDS011;10197;54.282;10.078;2023-05-29T14:14:09;7.97;;;2.65;;
20073;SDS011;10197;54.282;10.078;2023-05-29T14:16:35;7.55;;;3.15;;
20073;SDS011;10197;54.282;10.078;2023-05-29T14:19:02;6.28;;;2.90;;
20073;SDS011;10197;54.282;10.078;2023-05-29T14:21:29;8.57;;;2.67;;
20073;SDS011;10197;54.282;10.078;2023-05-29T14:23:56;6.03;;;2.53;;
20073;SDS011;10197;54.282;10.078;2023-05-29T14:26:24;7.53;;;2.80;;
20073;SDS011;10197;54.282;10.078;2023-05-29T14:28:51;6.57;;;2.60;;
20073;SDS011;10197;54.282;10.078;2023-05-29T14:31:18;8.70;;;3.10;;
20073;SDS011;10197;54.282;10.078;2023-05-29T14:33:45;6.45;;;2.88;;
20073;SDS011;10197;54.282;10.078;2023-05-29T14:36:14;8.05;;;3.05;;
20073;SDS011;10197;54.282;10.078;2023-05-29T14:38:40;5.57;;;2.40;;
20073;SDS011;10197;54.282;10.078;2023-05-29T14:41:08;5.50;;;2.45;;